Time;durP1;ratioP1;P1;durP2;ratioP2;P2;SDS_P1;SDS_P2;PMS_P1;PMS_P2;Temp;Humidity;BMP_temperature;BMP_pressure;BME280_temperature;BME280_humidity;BME280_pressure;Samples;Min_cycle;Max_cycle;Signal;HPM_P1;HPM_P2
2023/10/24 00:00:39;;;;;;;21.83;14.63;;;11.40;99.90;;;;;;5051643;28;20021;-57
2023/10/24 00:03:04;;;;;;;17.35;13.00;;;11.40;99.90;;;;;;5051237;28;20021;-57
2023/10/24 00:05:30;;;;;;;13.82;11.27;;;11.40;99.90;;;;;;5051466;28;20464;-57
2023/10/24 00:07:56;;;;;;;14.15;12.00;;;11.40;99.90;;;;;;5051061;28;20017;-58
2023/10/24 00:10:23;;;;;;;18.40;12.82;;;11.40;99.90;;;;;;5051160;28;20032;-57
2023/10/24 00:12:49;;;;;;;14.63;11.43;;;11.40;99.90;;;;;;5050932;28;20028;-57
2023/10/24 00:15:14;;;;;;;13.98;11.15;;;11.40;99.90;;;;;;5050736;28;20401;-58
2023/10/24 00:17:40;;;;;;;18.48;12.02;;;11.40;99.90;;;;;;5050659;28;20546;-58
2023/10/24 00:20:07;;;;;;;13.75;10.55;;;11.40;99.90;;;;;;5050929;28;20035;-57
2023/10/24 00:22:32;;;;;;;18.33;12.40;;;11.50;99.90;;;;;;5050552;28;20033;-57
2023/10/24 00:24:58;;;;;;;21.35;13.38;;;11.50;99.90;;;;;;5049232;28;20094;-58
2023/10/24 00:27:23;;;;;;;19.88;13.13;;;11.40;99.90;;;;;;5050733;28;20475;-57
2023/10/24 00:29:49;;;;;;;15.05;12.13;;;11.40;99.90;;;;;;5050602;28;20411;-57
2023/10/24 00:32:15;;;;;;;14.50;12.02;;;11.40;99.90;;;;;;5050683;28;20017;-57
2023/10/24 00:34:40;;;;;;;14.30;11.38;;;11.40;99.90;;;;;;5050453;28;20029;-57
2023/10/24 00:37:06;;;;;;;12.73;10.90;;;11.40;99.90;;;;;;5050931;28;20485;-57
2023/10/24 00:39:31;;;;;;;17.92;11.20;;;11.50;99.90;;;;;;5050512;28;20045;-57
2023/10/24 00:41:57;;;;;;;17.52;12.27;;;11.50;99.90;;;;;;5050433;28;20025;-57
2023/10/24 00:44:22;;;;;;;16.45;12.00;;;11.50;99.90;;;;;;5050342;28;20021;-58
2023/10/24 00:46:48;;;;;;;16.65;10.60;;;11.40;99.90;;;;;;5049867;28;20013;-57
2023/10/24 00:49:14;;;;;;;15.25;11.63;;;11.50;99.90;;;;;;5049018;28;20116;-57
2023/10/24 00:51:41;;;;;;;12.30;10.13;;;11.50;99.90;;;;;;5048884;28;20624;-57
2023/10/24 00:54:08;;;;;;;13.35;9.90;;;11.50;99.90;;;;;;5050204;28;20037;-57
2023/10/24 00:56:34;;;;;;;14.40;11.00;;;11.50;99.90;;;;;;5049825;28;20049;-57
2023/10/24 00:59:01;;;;;;;18.67;11.90;;;11.50;99.90;;;;;;5049179;28;20070;-57
2023/10/24 01:01:28;;;;;;;12.52;10.27;;;11.50;99.90;;;;;;5049908;28;20028;-57
2023/10/24 01:03:56;;;;;;;12.15;9.82;;;11.50;99.90;;;;;;5049945;28;20029;-57
2023/10/24 01:06:21;;;;;;;15.05;11.13;;;11.50;99.90;;;;;;5050232;28;20027;-57
2023/10/24 01:08:47;;;;;;;15.85;10.68;;;11.50;99.90;;;;;;5050076;28;20433;-58
2023/10/24 01:11:13;;;;;;;15.05;10.98;;;11.50;99.90;;;;;;5050413;28;20039;-57
2023/10/24 01:13:39;;;;;;;11.63;9.55;;;11.50;99.90;;;;;;5050050;28;20028;-57
2023/10/24 01:16:05;;;;;;;15.50;10.50;;;11.50;99.90;;;;;;5049800;28;20017;-57
2023/10/24 01:18:30;;;;;;;15.40;11.02;;;11.50;99.90;;;;;;5049865;28;20029;-57
2023/10/24 01:20:56;;;;;;;14.57;9.35;;;11.50;99.90;;;;;;5048440;28;20025;-57
2023/10/24 01:23:22;;;;;;;14.15;10.35;;;11.50;99.90;;;;;;5049816;28;20497;-58
2023/10/24 01:25:50;;;;;;;12.20;10.65;;;11.50;99.90;;;;;;5050110;28;20021;-57
2023/10/24 01:28:17;;;;;;;16.20;9.82;;;11.50;99.90;;;;;;5049488;28;20056;-57
2023/10/24 01:30:43;;;;;;;16.20;9.68;;;11.50;99.90;;;;;;5048249;28;20036;-57
2023/10/24 01:33:08;;;;;;;13.55;9.65;;;11.50;99.90;;;;;;5049439;28;20025;-57
2023/10/24 01:35:34;;;;;;;15.60;9.27;;;11.50;99.90;;;;;;5049242;28;20078;-57
2023/10/24 01:37:59;;;;;;;19.70;9.32;;;11.60;99.90;;;;;;5049555;28;20024;-57
2023/10/24 01:40:25;;;;;;;14.70;10.68;;;11.60;99.90;;;;;;5049328;28;20528;-57
2023/10/24 01:42:50;;;;;;;13.55;9.52;;;11.50;99.90;;;;;;5049269;28;20033;-57
2023/10/24 01:45:16;;;;;;;15.02;9.93;;;11.60;99.90;;;;;;5049199;28;20109;-58
2023/10/24 01:47:42;;;;;;;16.65;9.15;;;11.60;99.90;;;;;;5049205;28;20021;-57
2023/10/24 01:50:08;;;;;;;13.40;9.90;;;11.60;99.90;;;;;;5049430;28;20025;-57
2023/10/24 01:52:34;;;;;;;11.38;8.65;;;11.60;99.90;;;;;;5049296;28;20024;-57
2023/10/24 01:55:00;;;;;;;16.20;8.65;;;11.60;99.90;;;;;;5049100;28;20021;-57
2023/10/24 01:57:25;;;;;;;10.18;8.23;;;11.60;99.90;;;;;;5049204;28;20029;-57
2023/10/24 01:59:52;;;;;;;20.33;9.18;;;11.60;99.90;;;;;;5049111;28;20032;-57
2023/10/24 02:02:17;;;;;;;20.15;9.43;;;11.60;99.90;;;;;;5049112;28;20490;-57
2023/10/24 02:04:43;;;;;;;14.80;9.27;;;11.70;99.90;;;;;;5049130;28;20063;-57
2023/10/24 02:07:09;;;;;;;12.40;8.45;;;11.60;99.90;;;;;;5048920;28;20496;-58
2023/10/24 02:09:35;;;;;;;13.95;8.75;;;11.60;99.90;;;;;;5050748;28;20021;-57
2023/10/24 02:12:01;;;;;;;9.48;7.60;;;11.60;99.90;;;;;;5051892;28;20037;-57
2023/10/24 02:14:27;;;;;;;11.70;8.52;;;11.60;99.90;;;;;;5053188;28;20025;-57
2023/10/24 02:16:53;;;;;;;12.48;9.18;;;11.60;99.90;;;;;;5052897;28;20394;-57
2023/10/24 02:19:18;;;;;;;14.90;9.00;;;11.60;99.90;;;;;;5053172;28;20051;-58
2023/10/24 02:21:44;;;;;;;12.60;8.60;;;11.60;99.90;;;;;;5053122;28;20043;-57
2023/10/24 02:24:10;;;;;;;12.30;8.25;;;11.60;99.90;;;;;;5050012;28;20053;-58
2023/10/24 02:26:36;;;;;;;11.07;8.35;;;11.60;99.90;;;;;;5046182;28;20053;-58
2023/10/24 02:29:02;;;;;;;15.32;8.98;;;11.60;99.90;;;;;;5044046;28;20469;-58
2023/10/24 02:31:27;;;;;;;18.95;8.70;;;11.70;99.90;;;;;;5049563;28;20040;-58
2023/10/24 02:33:53;;;;;;;13.63;8.55;;;11.60;99.90;;;;;;5052853;28;20032;-58
2023/10/24 02:36:18;;;;;;;13.30;8.20;;;11.60;99.90;;;;;;5052563;28;20021;-58
2023/10/24 02:38:44;;;;;;;17.33;8.73;;;11.60;99.90;;;;;;5043531;28;20025;-57
2023/10/24 02:41:09;;;;;;;10.80;7.03;;;11.60;99.90;;;;;;5042672;28;20029;-57
2023/10/24 02:43:35;;;;;;;10.65;7.97;;;11.60;99.90;;;;;;5045125;28;20017;-58
2023/10/24 02:46:05;;;;;;;11.50;8.02;;;11.60;99.90;;;;;;5047083;28;20025;-57
2023/10/24 02:48:31;;;;;;;11.80;8.38;;;11.60;99.90;;;;;;5052841;28;20326;-57
2023/10/24 02:50:57;;;;;;;13.52;7.82;;;11.60;99.90;;;;;;5052557;28;20031;-57
2023/10/24 02:53:23;;;;;;;10.65;7.50;;;11.60;99.90;;;;;;5052583;28;20363;-57
2023/10/24 02:55:50;;;;;;;12.48;9.13;;;11.60;99.90;;;;;;5052279;28;20419;-57
2023/10/24 02:58:16;;;;;;;10.23;7.38;;;11.60;99.90;;;;;;5052411;28;20027;-57
2023/10/24 03:00:42;;;;;;;15.80;8.85;;;11.60;99.90;;;;;;5047925;28;20490;-58
2023/10/24 03:03:09;;;;;;;12.57;7.95;;;11.60;99.90;;;;;;5050653;28;20341;-57
2023/10/24 03:05:35;;;;;;;10.45;7.57;;;11.60;99.90;;;;;;5050855;28;20359;-57
2023/10/24 03:08:01;;;;;;;15.80;7.57;;;11.60;99.90;;;;;;5052226;28;20079;-57
2023/10/24 03:10:27;;;;;;;10.80;8.15;;;11.60;99.90;;;;;;5052356;28;20380;-57
2023/10/24 03:12:54;;;;;;;17.10;9.57;;;11.60;99.90;;;;;;5052157;28;20096;-57
2023/10/24 03:15:19;;;;;;;12.38;7.43;;;11.60;99.90;;;;;;5050572;28;20032;-57
2023/10/24 03:17:45;;;;;;;12.73;7.95;;;11.50;99.90;;;;;;5052061;28;20029;-57
2023/10/24 03:20:11;;;;;;;14.88;8.68;;;11.50;99.90;;;;;;5051644;28;20513;-57
2023/10/24 03:22:37;;;;;;;9.15;7.10;;;11.50;99.90;;;;;;5051502;28;20036;-57
2023/10/24 03:25:03;;;;;;;12.00;7.45;;;11.50;99.90;;;;;;5051750;28;20013;-58
2023/10/24 03:27:29;;;;;;;11.93;8.48;;;11.50;99.90;;;;;;5050431;28;20021;-58
2023/10/24 03:29:54;;;;;;;13.18;8.60;;;11.50;99.90;;;;;;5052139;28;20028;-58
2023/10/24 03:32:20;;;;;;;11.98;8.77;;;11.50;99.90;;;;;;5051736;28;20028;-58
2023/10/24 03:34:45;;;;;;;11.80;8.93;;;11.50;99.90;;;;;;5051611;28;20044;-57
2023/10/24 03:37:11;;;;;;;15.50;9.38;;;11.50;99.90;;;;;;5051558;28;20028;-58
2023/10/24 03:39:37;;;;;;;15.65;8.57;;;11.50;99.90;;;;;;5051486;28;20036;-57
2023/10/24 03:42:02;;;;;;;15.07;9.82;;;11.40;99.90;;;;;;5050297;28;20716;-57
2023/10/24 03:44:28;;;;;;;18.02;8.93;;;11.40;99.90;;;;;;5051551;28;20389;-58
2023/10/24 03:46:53;;;;;;;10.57;8.18;;;11.40;99.90;;;;;;5051222;28;20017;-58
2023/10/24 03:49:19;;;;;;;11.82;7.68;;;11.40;99.90;;;;;;5051737;28;20049;-57
2023/10/24 03:51:46;;;;;;;13.68;8.07;;;11.40;99.90;;;;;;5051476;28;20491;-57
2023/10/24 03:54:12;;;;;;;11.27;8.18;;;11.40;99.90;;;;;;5051645;28;20056;-57
2023/10/24 03:56:37;;;;;;;18.08;9.73;;;11.40;99.90;;;;;;5050932;28;20443;-57
2023/10/24 03:59:03;;;;;;;14.07;8.88;;;11.40;99.90;;;;;;5051153;28;20063;-57
2023/10/24 04:01:29;;;;;;;14.85;8.70;;;11.40;99.90;;;;;;5051075;28;20025;-58
2023/10/24 04:03:54;;;;;;;12.13;7.38;;;11.40;99.90;;;;;;5049814;28;20066;-57
2023/10/24 04:06:20;;;;;;;14.88;9.55;;;11.40;99.90;;;;;;5049640;28;20032;-57
2023/10/24 04:08:45;;;;;;;16.02;9.35;;;11.40;99.90;;;;;;5049746;28;20056;-57
2023/10/24 04:11:17;;;;;;;15.48;8.52;;;11.40;99.90;;;;;;5050123;28;20060;-57
2023/10/24 04:13:45;;;;;;;13.88;9.07;;;11.30;99.90;;;;;;5051464;28;20033;-57
2023/10/24 04:16:11;;;;;;;14.80;9.90;;;11.30;99.90;;;;;;5051098;28;20032;-57
2023/10/24 04:18:37;;;;;;;16.85;9.18;;;11.30;99.90;;;;;;5050848;28;20040;-57
2023/10/24 04:21:02;;;;;;;18.67;9.38;;;11.30;99.90;;;;;;5050373;28;20036;-57
2023/10/24 04:23:28;;;;;;;19.17;9.27;;;11.30;99.90;;;;;;5050730;28;20017;-57
2023/10/24 04:25:54;;;;;;;16.33;8.55;;;11.30;99.90;;;;;;5054798;28;20013;-57
2023/10/24 04:28:19;;;;;;;19.67;9.63;;;11.30;99.90;;;;;;5053412;28;20034;-57
2023/10/24 04:30:45;;;;;;;16.13;9.10;;;11.30;99.90;;;;;;5050696;28;20065;-57
2023/10/24 04:33:10;;;;;;;14.63;9.45;;;11.30;99.90;;;;;;5050599;28;20068;-57
2023/10/24 04:35:47;;;;;;;19.48;9.45;;;11.30;99.90;;;;;;5049197;28;20620;-57
2023/10/24 04:38:13;;;;;;;18.60;9.77;;;11.30;99.90;;;;;;5050393;28;20505;-57
2023/10/24 04:40:39;;;;;;;15.00;9.45;;;11.30;99.90;;;;;;5050471;28;20029;-57
2023/10/24 04:43:05;;;;;;;12.07;8.23;;;11.30;99.90;;;;;;5050038;28;20025;-57
2023/10/24 04:45:32;;;;;;;16.30;9.48;;;11.30;99.90;;;;;;5048857;28;20401;-57
2023/10/24 04:48:04;;;;;;;14.15;9.35;;;11.30;99.90;;;;;;5050163;28;20029;-57
2023/10/24 04:50:30;;;;;;;14.98;9.35;;;11.20;99.90;;;;;;5050634;28;20044;-57
2023/10/24 04:52:56;;;;;;;19.80;9.00;;;11.20;99.90;;;;;;5050370;28;20025;-57
2023/10/24 04:55:22;;;;;;;17.45;9.38;;;11.30;99.90;;;;;;5050405;28;20032;-57
2023/10/24 04:57:48;;;;;;;14.00;9.07;;;11.20;99.90;;;;;;5050092;28;20490;-57
2023/10/24 05:00:14;;;;;;;17.08;9.30;;;11.20;99.90;;;;;;5050371;28;20021;-57
2023/10/24 05:02:41;;;;;;;22.75;10.15;;;11.30;99.90;;;;;;5049854;28;20435;-57
2023/10/24 05:05:07;;;;;;;14.07;8.45;;;11.30;99.90;;;;;;5049768;28;20039;-57
2023/10/24 05:07:32;;;;;;;17.63;9.07;;;11.30;99.90;;;;;;5049896;28;20397;-57
2023/10/24 05:09:58;;;;;;;13.70;9.50;;;11.30;99.90;;;;;;5049724;28;20027;-57
2023/10/24 05:12:24;;;;;;;14.35;8.90;;;11.30;99.90;;;;;;5049799;28;20033;-58
2023/10/24 05:14:50;;;;;;;17.50;8.00;;;11.30;99.90;;;;;;5049559;28;20025;-57
2023/10/24 05:17:15;;;;;;;11.15;7.63;;;11.30;99.90;;;;;;5049512;28;20048;-57
2023/10/24 05:19:42;;;;;;;12.20;8.07;;;11.40;99.90;;;;;;5043709;28;20026;-57
2023/10/24 05:22:09;;;;;;;14.00;8.68;;;11.40;99.90;;;;;;5040931;28;20156;-57
2023/10/24 05:24:34;;;;;;;13.13;7.97;;;11.40;99.90;;;;;;5039145;28;20030;-57
2023/10/24 05:27:00;;;;;;;10.07;7.10;;;11.40;99.90;;;;;;5037784;28;20087;-57
2023/10/24 05:29:26;;;;;;;12.73;7.55;;;11.40;99.90;;;;;;5038856;28;20067;-57
2023/10/24 05:31:51;;;;;;;16.38;7.55;;;11.50;99.90;;;;;;5037928;28;20029;-57
2023/10/24 05:34:17;;;;;;;11.45;7.80;;;11.50;99.90;;;;;;5039765;28;20031;-57
2023/10/24 05:36:42;;;;;;;13.63;8.50;;;11.50;99.90;;;;;;5040868;28;20478;-57
2023/10/24 05:39:08;;;;;;;11.60;7.28;;;11.50;99.90;;;;;;5049445;28;20033;-57
2023/10/24 05:41:33;;;;;;;19.20;9.00;;;11.50;99.90;;;;;;5041159;28;20040;-57
2023/10/24 05:43:59;;;;;;;10.80;6.75;;;11.50;99.90;;;;;;5048861;28;20132;-57
2023/10/24 05:46:24;;;;;;;13.25;6.97;;;11.60;99.90;;;;;;5049114;28;20388;-57
2023/10/24 05:48:50;;;;;;;13.30;6.80;;;11.60;99.90;;;;;;5049500;28;20581;-57
2023/10/24 05:51:22;;;;;;;10.02;6.63;;;11.60;99.90;;;;;;5047478;28;20032;-57
2023/10/24 05:53:49;;;;;;;9.65;6.53;;;11.60;99.90;;;;;;5048907;28;20125;-57
2023/10/24 05:56:15;;;;;;;10.85;6.40;;;11.60;99.90;;;;;;5049006;28;20025;-57
2023/10/24 05:58:40;;;;;;;10.18;5.88;;;11.60;99.90;;;;;;5049360;28;20425;-57
2023/10/24 06:01:07;;;;;;;10.23;6.05;;;11.60;99.90;;;;;;5049189;28;20533;-57
2023/10/24 06:03:33;;;;;;;13.93;6.82;;;11.60;99.90;;;;;;5049118;28;20025;-57
2023/10/24 06:05:58;;;;;;;11.63;6.80;;;11.70;99.90;;;;;;5047888;28;20024;-57
2023/10/24 06:08:24;;;;;;;22.17;8.98;;;11.70;99.90;;;;;;5047705;28;20027;-57
2023/10/24 06:11:00;;;;;;;15.27;8.05;;;11.70;99.90;;;;;;5048993;28;20021;-57
2023/10/24 06:13:26;;;;;;;11.23;7.28;;;11.70;99.90;;;;;;5047596;28;20021;-57
2023/10/24 06:15:51;;;;;;;18.40;7.38;;;11.70;99.90;;;;;;5048775;28;20116;-57
2023/10/24 06:18:18;;;;;;;16.27;8.80;;;11.70;99.90;;;;;;5048487;28;20409;-57
2023/10/24 06:20:43;;;;;;;16.00;7.72;;;11.80;99.90;;;;;;5049167;28;20365;-57
2023/10/24 06:23:10;;;;;;;17.02;8.65;;;11.80;99.90;;;;;;5048599;28;20033;-57
2023/10/24 06:25:40;;;;;;;15.55;7.95;;;11.80;99.90;;;;;;5048793;28;20429;-57
2023/10/24 06:28:07;;;;;;;14.10;8.40;;;11.80;99.90;;;;;;5044778;28;20029;-57
2023/10/24 06:30:33;;;;;;;12.60;7.15;;;11.80;99.90;;;;;;5047611;28;20029;-57
2023/10/24 06:32:59;;;;;;;11.73;7.68;;;11.80;99.90;;;;;;5046692;28;20031;-56
2023/10/24 06:35:25;;;;;;;20.00;9.10;;;11.80;99.90;;;;;;5038073;28;20424;-56
2023/10/24 06:37:51;;;;;;;16.50;8.57;;;11.80;99.90;;;;;;5044647;28;20439;-56
2023/10/24 06:40:17;;;;;;;16.65;9.38;;;11.90;99.90;;;;;;5047505;28;20040;-56
2023/10/24 06:42:42;;;;;;;17.50;8.63;;;11.90;99.90;;;;;;5041713;28;20494;-56
2023/10/24 06:45:08;;;;;;;16.50;7.90;;;11.90;99.90;;;;;;5036487;28;20025;-56
2023/10/24 06:47:33;;;;;;;14.45;7.22;;;11.90;99.90;;;;;;5037475;28;20033;-56
2023/10/24 06:49:59;;;;;;;9.35;6.72;;;11.90;99.90;;;;;;5048670;28;20103;-56
2023/10/24 06:52:25;;;;;;;15.02;8.25;;;11.90;99.90;;;;;;5048961;28;20490;-56
2023/10/24 06:54:50;;;;;;;11.18;6.97;;;12.00;99.90;;;;;;5040735;28;20044;-56
2023/10/24 06:57:17;;;;;;;13.30;8.50;;;12.10;99.90;;;;;;5052306;28;20083;-56
2023/10/24 06:59:42;;;;;;;22.35;8.63;;;12.00;99.90;;;;;;5052950;28;20445;-56
2023/10/24 07:02:08;;;;;;;13.88;8.00;;;12.00;99.90;;;;;;5052680;28;20182;-56
2023/10/24 07:04:33;;;;;;;16.17;7.18;;;12.10;99.90;;;;;;5051873;28;20060;-56
2023/10/24 07:06:59;;;;;;;10.20;6.68;;;12.10;99.90;;;;;;5051880;28;20253;-56
2023/10/24 07:09:24;;;;;;;14.50;7.50;;;12.10;99.90;;;;;;5052506;28;20586;-56
2023/10/24 07:11:50;;;;;;;13.43;7.28;;;12.20;99.90;;;;;;5051752;28;20525;-56
2023/10/24 07:14:15;;;;;;;14.77;7.18;;;12.20;99.90;;;;;;5043446;28;20040;-56
2023/10/24 07:16:41;;;;;;;16.40;8.10;;;12.30;99.90;;;;;;5051232;28;20036;-56
2023/10/24 07:19:06;;;;;;;9.80;5.65;;;12.30;99.90;;;;;;5051828;28;20064;-56
2023/10/24 07:21:32;;;;;;;10.50;6.47;;;12.30;99.90;;;;;;5051764;28;20035;-56
2023/10/24 07:23:58;;;;;;;12.23;6.78;;;12.30;99.90;;;;;;5051644;28;20025;-56
2023/10/24 07:26:23;;;;;;;8.18;5.75;;;12.40;99.90;;;;;;5051307;28;20083;-56
2023/10/24 07:28:49;;;;;;;11.90;6.00;;;12.40;99.90;;;;;;5051795;28;20025;-56
2023/10/24 07:31:15;;;;;;;13.93;7.63;;;12.50;99.90;;;;;;5051802;28;20032;-56
2023/10/24 07:33:41;;;;;;;12.90;7.38;;;12.50;99.90;;;;;;5051311;28;20557;-56
2023/10/24 07:36:08;;;;;;;11.02;6.75;;;12.50;99.90;;;;;;5051285;28;20425;-57
2023/10/24 07:38:34;;;;;;;10.00;5.82;;;12.50;99.90;;;;;;5051560;28;20024;-57
2023/10/24 07:41:00;;;;;;;11.05;6.35;;;12.60;99.90;;;;;;5051315;28;20040;-57
2023/10/24 07:43:25;;;;;;;13.52;6.63;;;12.60;99.90;;;;;;5050913;28;20382;-57
2023/10/24 07:45:53;;;;;;;11.05;6.00;;;12.60;99.90;;;;;;5051528;28;20151;-57
2023/10/24 07:48:19;;;;;;;8.25;5.00;;;12.70;99.90;;;;;;5038543;28;20021;-57
2023/10/24 07:50:53;;;;;;;8.65;5.07;;;12.80;99.90;;;;;;5037211;28;20089;-57
2023/10/24 07:53:23;;;;;;;7.38;5.22;;;12.80;99.90;;;;;;5039768;28;20159;-57
2023/10/24 07:55:49;;;;;;;8.30;5.45;;;12.90;99.90;;;;;;5037369;28;20055;-57
2023/10/24 07:58:17;;;;;;;13.00;5.55;;;12.90;99.90;;;;;;5039240;28;20448;-57
2023/10/24 08:00:44;;;;;;;9.45;5.63;;;13.00;99.90;;;;;;5037128;28;20029;-57
2023/10/24 08:03:13;;;;;;;7.70;4.85;;;13.00;99.90;;;;;;5039413;28;20021;-57
2023/10/24 08:05:39;;;;;;;10.70;5.47;;;13.00;99.90;;;;;;5042825;28;20044;-57
2023/10/24 08:08:05;;;;;;;6.60;4.93;;;13.10;99.90;;;;;;5050414;28;20021;-57
2023/10/24 08:10:34;;;;;;;9.25;5.05;;;13.10;99.90;;;;;;5051119;28;20108;-57
2023/10/24 08:13:00;;;;;;;11.73;5.00;;;13.20;99.90;;;;;;5049849;28;20048;-57
2023/10/24 08:15:27;;;;;;;13.45;6.90;;;13.20;99.90;;;;;;5051020;28;20057;-57
2023/10/24 08:17:52;;;;;;;9.80;5.05;;;13.20;99.90;;;;;;5051022;28;20536;-57
2023/10/24 08:20:18;;;;;;;9.80;5.50;;;13.20;99.90;;;;;;5050913;28;20028;-57
2023/10/24 08:22:44;;;;;;;11.68;5.35;;;13.20;99.90;;;;;;5049359;28;20053;-57
2023/10/24 08:25:10;;;;;;;9.35;5.03;;;13.30;99.90;;;;;;5041354;28;20505;-57
2023/10/24 08:27:35;;;;;;;6.50;4.75;;;13.30;99.90;;;;;;5043701;28;20475;-56
2023/10/24 08:30:03;;;;;;;8.10;5.82;;;13.40;99.90;;;;;;5050592;28;20505;-57
2023/10/24 08:32:29;;;;;;;10.10;6.30;;;13.40;99.90;;;;;;5050628;28;20486;-57
2023/10/24 08:34:54;;;;;;;15.43;8.65;;;13.50;99.90;;;;;;5049550;28;20053;-57
2023/10/24 08:37:20;;;;;;;9.80;6.15;;;13.50;99.90;;;;;;5042902;28;20052;-57
2023/10/24 08:39:46;;;;;;;10.05;5.70;;;13.50;99.90;;;;;;5039050;28;20543;-57
2023/10/24 08:42:13;;;;;;;10.00;5.68;;;13.50;99.90;;;;;;5040240;28;20128;-57
2023/10/24 08:44:40;;;;;;;8.98;5.38;;;13.60;99.90;;;;;;5040976;28;20494;-56
2023/10/24 08:47:07;;;;;;;8.93;4.13;;;13.60;99.90;;;;;;5050033;28;20451;-57
2023/10/24 08:49:36;;;;;;;9.82;5.25;;;13.60;99.90;;;;;;5050213;28;20059;-57
2023/10/24 08:52:01;;;;;;;5.32;4.38;;;13.70;99.90;;;;;;5050228;28;20025;-57
2023/10/24 08:54:27;;;;;;;7.38;4.50;;;13.70;99.90;;;;;;5050237;28;20025;-57
2023/10/24 08:56:54;;;;;;;7.40;4.25;;;13.70;99.90;;;;;;5048512;28;20568;-57
2023/10/24 08:59:20;;;;;;;9.15;4.75;;;13.80;99.90;;;;;;5048817;28;20037;-57
2023/10/24 09:01:48;;;;;;;8.75;4.70;;;13.80;99.90;;;;;;5050010;28;20037;-57
2023/10/24 09:04:14;;;;;;;7.78;4.10;;;13.80;99.90;;;;;;5050093;28;20045;-57
2023/10/24 09:06:39;;;;;;;8.95;5.13;;;13.80;99.90;;;;;;5048768;28;20028;-57
2023/10/24 09:09:05;;;;;;;7.75;5.07;;;13.80;99.90;;;;;;5050090;28;20029;-57
2023/10/24 09:11:50;;;;;;;7.38;4.25;;;13.80;99.90;;;;;;5049826;28;20033;-57
2023/10/24 09:14:16;;;;;;;8.95;3.92;;;13.90;99.90;;;;;;5049745;28;20047;-57
2023/10/24 09:16:41;;;;;;;7.78;5.07;;;13.90;99.90;;;;;;5049515;28;20466;-57
2023/10/24 09:19:13;;;;;;;7.63;4.53;;;13.90;99.90;;;;;;5049016;28;20530;-57
2023/10/24 09:21:38;;;;;;;6.25;4.13;;;13.90;99.90;;;;;;5049280;28;20052;-57
2023/10/24 09:24:12;;;;;;;7.00;4.03;;;14.00;99.90;;;;;;5049502;28;20478;-57
2023/10/24 09:26:38;;;;;;;7.63;3.70;;;14.00;99.90;;;;;;5048231;28;20032;-57
2023/10/24 09:29:07;;;;;;;8.88;3.83;;;14.00;99.90;;;;;;5049663;28;20017;-57
2023/10/24 09:31:33;;;;;;;8.75;4.32;;;14.10;99.90;;;;;;5049539;28;20044;-57
2023/10/24 09:33:59;;;;;;;8.15;3.55;;;14.10;99.90;;;;;;5049425;28;20029;-57
2023/10/24 09:36:27;;;;;;;6.60;3.92;;;14.10;99.90;;;;;;5049224;28;20082;-57
2023/10/24 09:38:54;;;;;;;8.45;4.78;;;14.20;99.90;;;;;;5049348;28;20040;-56
2023/10/24 09:41:20;;;;;;;7.97;4.30;;;14.10;99.90;;;;;;5049417;28;20025;-57
2023/10/24 09:43:48;;;;;;;7.88;4.22;;;14.00;99.90;;;;;;5049169;28;20383;-57
2023/10/24 09:46:22;;;;;;;8.10;3.55;;;13.90;99.90;;;;;;5049363;28;20027;-57
2023/10/24 09:48:50;;;;;;;8.68;4.30;;;13.90;99.90;;;;;;5049437;28;20066;-57
2023/10/24 09:51:19;;;;;;;9.38;3.88;;;13.90;99.90;;;;;;5049271;28;20025;-57
2023/10/24 09:53:45;;;;;;;5.32;3.97;;;14.00;99.90;;;;;;5049210;28;20014;-57
2023/10/24 09:56:12;;;;;;;12.43;5.32;;;14.00;99.90;;;;;;5048986;28;20040;-57
2023/10/24 09:58:41;;;;;;;7.85;4.50;;;14.00;99.90;;;;;;5048147;28;20492;-57
2023/10/24 10:01:08;;;;;;;9.05;4.00;;;14.00;99.90;;;;;;5049135;28;20056;-57
2023/10/24 10:03:35;;;;;;;8.88;3.40;;;14.00;99.90;;;;;;5047650;28;20021;-57
2023/10/24 10:06:06;;;;;;;7.22;3.83;;;14.10;99.90;;;;;;5045962;28;20079;-58
2023/10/24 10:08:37;;;;;;;5.22;3.58;;;14.10;99.90;;;;;;5040152;28;20017;-57
2023/10/24 10:11:05;;;;;;;8.38;4.10;;;14.10;99.90;;;;;;5039654;28;20238;-57
2023/10/24 10:13:56;;;;;;;7.85;4.20;;;14.10;99.90;;;;;;5037571;28;20017;-57
2023/10/24 10:16:50;;;;;;;9.30;4.07;;;14.10;99.90;;;;;;5035419;28;20045;-58
2023/10/24 10:19:41;;;;;;;7.90;3.38;;;14.10;99.90;;;;;;5036905;28;20287;-57
2023/10/24 10:22:46;;;;;;;6.30;3.22;;;14.00;99.90;;;;;;5047978;28;20512;-57
2023/10/24 10:25:49;;;;;;;9.02;4.95;;;14.10;99.90;;;;;;5033064;28;20040;-57
2023/10/24 10:28:45;;;;;;;9.10;4.00;;;14.10;99.90;;;;;;5054398;28;20081;-57
2023/10/24 10:31:28;;;;;;;7.18;3.63;;;14.10;99.90;;;;;;5046741;28;20140;-57
2023/10/24 10:33:57;;;;;;;5.93;3.20;;;14.10;99.90;;;;;;5044802;28;20797;-57
2023/10/24 10:36:24;;;;;;;7.30;3.42;;;14.20;99.90;;;;;;5051778;28;20017;-57
2023/10/24 10:38:50;;;;;;;9.73;3.58;;;14.30;99.90;;;;;;5051242;28;20044;-57
2023/10/24 10:41:21;;;;;;;6.88;3.45;;;14.30;99.90;;;;;;5043801;28;20017;-57
2023/10/24 10:43:48;;;;;;;4.75;3.25;;;14.40;99.90;;;;;;5037741;28;20017;-57
2023/10/24 10:46:22;;;;;;;7.13;4.20;;;14.50;99.90;;;;;;5038428;28;20032;-58
2023/10/24 10:48:49;;;;;;;7.38;3.88;;;14.40;99.90;;;;;;5038177;28;20082;-57
2023/10/24 10:51:25;;;;;;;7.35;3.72;;;14.50;99.90;;;;;;5051783;28;20017;-58
2023/10/24 10:54:19;;;;;;;7.40;3.90;;;14.50;99.90;;;;;;5049943;28;20032;-57
2023/10/24 10:56:47;;;;;;;4.90;2.85;;;14.50;99.90;;;;;;5044005;28;20092;-57
2023/10/24 10:59:34;;;;;;;7.47;3.92;;;14.50;99.90;;;;;;5042111;28;20039;-58
2023/10/24 11:02:30;;;;;;;6.15;3.47;;;14.60;99.90;;;;;;5045179;28;20044;-57
2023/10/24 11:04:56;;;;;;;9.25;3.63;;;14.60;99.90;;;;;;5052411;28;20025;-58
2023/10/24 11:07:50;;;;;;;4.18;3.05;;;14.60;99.90;;;;;;5052155;28;20425;-58
2023/10/24 11:10:16;;;;;;;9.85;3.55;;;14.60;99.90;;;;;;5051223;28;20025;-58
2023/10/24 11:12:51;;;;;;;6.28;3.33;;;14.70;99.90;;;;;;5046623;28;20033;-58
2023/10/24 11:15:17;;;;;;;7.28;3.13;;;14.70;99.90;;;;;;5041912;28;20091;-58
2023/10/24 11:17:43;;;;;;;6.95;3.53;;;14.70;99.90;;;;;;5042636;28;20025;-58
2023/10/24 11:20:10;;;;;;;5.68;3.45;;;14.60;99.90;;;;;;5049002;28;20478;-58
2023/10/24 11:22:37;;;;;;;5.57;3.10;;;14.60;99.90;;;;;;5052228;28;20029;-57
2023/10/24 11:25:12;;;;;;;7.43;3.25;;;14.60;99.90;;;;;;5051440;28;20025;-58
2023/10/24 11:27:41;;;;;;;5.18;2.60;;;14.60;99.90;;;;;;5051693;28;20032;-57
2023/10/24 11:30:07;;;;;;;4.30;3.00;;;14.60;99.90;;;;;;5051842;28;20381;-57
2023/10/24 11:32:33;;;;;;;3.90;2.38;;;14.60;99.90;;;;;;5052112;28;20470;-58
2023/10/24 11:34:59;;;;;;;6.00;3.22;;;14.60;99.90;;;;;;5043836;28;20100;-57
2023/10/24 11:37:27;;;;;;;4.97;2.97;;;14.60;99.90;;;;;;5040616;28;20127;-58
2023/10/24 11:39:53;;;;;;;3.33;2.85;;;14.50;99.90;;;;;;5041153;28;20064;-57
2023/10/24 11:42:18;;;;;;;5.30;2.70;;;14.50;99.90;;;;;;5041359;28;20060;-58
2023/10/24 11:44:44;;;;;;;4.05;2.63;;;14.50;99.90;;;;;;5040370;28;20029;-58
2023/10/24 11:47:16;;;;;;;5.68;2.67;;;14.50;99.90;;;;;;5039265;28;20028;-58
2023/10/24 11:49:45;;;;;;;5.32;2.95;;;14.50;99.90;;;;;;5043746;28;20095;-58
2023/10/24 11:52:11;;;;;;;4.10;2.78;;;14.50;99.90;;;;;;5048437;28;20033;-58
2023/10/24 11:54:38;;;;;;;5.95;2.97;;;14.40;99.90;;;;;;5049605;28;20563;-58
2023/10/24 11:57:05;;;;;;;3.72;2.95;;;14.40;99.90;;;;;;5049694;28;20104;-58
2023/10/24 11:59:34;;;;;;;10.57;4.60;;;14.40;99.90;;;;;;5049867;28;20056;-57
2023/10/24 12:02:03;;;;;;;6.03;3.70;;;14.30;99.90;;;;;;5051597;28;20029;-57
2023/10/24 12:04:32;;;;;;;10.57;4.10;;;14.30;99.90;;;;;;5051116;28;20025;-58
2023/10/24 12:07:05;;;;;;;6.38;3.60;;;14.30;99.90;;;;;;5049919;28;20025;-58
2023/10/24 12:09:37;;;;;;;10.95;3.85;;;14.30;99.90;;;;;;5051317;28;20066;-58
2023/10/24 12:12:06;;;;;;;4.32;3.00;;;14.30;99.90;;;;;;5051422;28;20045;-57
2023/10/24 12:14:32;;;;;;;5.95;2.65;;;14.30;99.90;;;;;;5049752;28;20036;-58
2023/10/24 12:16:58;;;;;;;5.38;3.47;;;14.30;99.90;;;;;;5050794;28;20366;-57
2023/10/24 12:19:24;;;;;;;7.18;3.78;;;14.30;99.90;;;;;;5051326;28;20021;-57
2023/10/24 12:21:50;;;;;;;7.20;3.60;;;14.40;99.90;;;;;;5050982;28;20029;-58
2023/10/24 12:24:15;;;;;;;7.10;4.22;;;14.40;99.90;;;;;;5051290;28;20028;-57
2023/10/24 12:26:41;;;;;;;4.45;3.80;;;14.30;99.90;;;;;;5050408;28;20067;-58
2023/10/24 12:29:10;;;;;;;6.55;3.95;;;14.30;99.90;;;;;;5050748;28;20017;-58
2023/10/24 12:31:37;;;;;;;4.75;4.03;;;14.20;99.90;;;;;;5049299;28;20040;-58
2023/10/24 12:34:02;;;;;;;4.88;3.97;;;14.30;99.90;;;;;;5050509;28;20040;-58
2023/10/24 12:36:28;;;;;;;10.65;4.25;;;14.30;99.90;;;;;;5050192;28;20021;-56
2023/10/24 12:38:53;;;;;;;6.07;3.95;;;14.30;99.90;;;;;;5050880;28;20115;-57